Hendersonville, NC

5:53 AM EDT on November 01, 2014 (GMT -0400)
Greenville-Spartanburg International | Change Station
CLOSE
Current Station
Airport
Location: Greenville/Spartanburg,
Elevation: 971 ft
Nearby Weather Stations

Elev 971 ft 34.88 °N, 82.22 °W | Updated 5 minutes ago

Snow
Snow
36 °F
Feels Like 30 °F
N
7
Wind Variable Wind from NW

Today
High -- | Low -- °F
--% Chance of Precip.
Yesterday
High -- | Low -- °F
Precip. -- in
7:51 AM 6:35 PM
Waxing Gibbous, 65% visible
Pressure 29.75 in
Visibility 8.0 miles
Clouds Scattered Clouds 900 ft
Overcast 1500 ft
Windchill 30 °F
Dew Point 34 °F
Humidity 93%
Rainfall 0.19 in
Snow Depth Not available.
UV 0 out of 12
Pollen 1.30 out of 12
Air Quality Not available.
Flu Activity Not available.
SPECI KGSP 010948Z AUTO 32006KT 8SM -RA SCT009 OVC015 02/01 A2975 RMK AO2 RAE0856B07SNB0856E43 P0007

More Conditions Fewer Conditions

Pressure 29.75 in
Visibility 8.0 miles
Clouds Scattered Clouds 900 ft
Overcast 1500 ft
Windchill 30 °F
Dew Point 34 °F
Humidity 93%
Rainfall 0.19 in
Snow Depth Not available.
UV 0 out of 12
Pollen 1.30 out of 12
Air Quality Not available.
Flu Activity Not available.
SPECI KGSP 010948Z AUTO 32006KT 8SM -RA SCT009 OVC015 02/01 A2975 RMK AO2 RAE0856B07SNB0856E43 P0007

More Conditions Fewer Conditions

10-Day Weather Forecast

Almanac

Astronomy

Nov. 01, 2014 Rise Set
Actual Time
Civil Twilight
Nautical Twilight
Astronomical Twilight
Moon
Length of Visible Light
Length of Day
Tomorrow will be .
, % of the Moon is Illuminated

Today's Extremes

State Highs State Lows

Community

WunderPhotos

Upload Photos

1,766,872 photos uploaded!

WunderBlogs® & News

Nearby

Air Quality

  Air Quality AQ Index Pollutant
Not available.

Snow Depth

Station Depth Elevation

Earthquake Activity

City Distance Mag. Time & Date
Minimum magnitude displayed is 2.5.

Coastal Water Temperatures

Place Temperature

Nearby Weather Stations